Time;durP1;ratioP1;P1;durP2;ratioP2;P2;SDS_P1;SDS_P2;PMS_P1;PMS_P2;Temp;Humidity;BMP_temperature;BMP_pressure;BME280_temperature;BME280_humidity;BME280_pressure;Samples;Min_cycle;Max_cycle;Signal;HPM_P1;HPM_P2
2024/01/29 00:00:16;;;;;;;2.20;1.33;;;;;;;3.22;91.31;96756.75;4360189;32;20211;-63
2024/01/29 00:02:43;;;;;;;0.97;0.97;;;;;;;2.83;92.92;96765.62;4349612;32;20192;-63
2024/01/29 00:05:09;;;;;;;1.30;1.20;;;;;;;2.93;93.14;96769.41;4356637;32;20372;-63
2024/01/29 00:07:34;;;;;;;0.53;0.53;;;;;;;3.15;92.08;96767.28;4363375;32;20307;-63
2024/01/29 00:10:00;;;;;;;0.90;0.90;;;;;;;3.01;92.98;96778.84;4364444;32;20207;-66
2024/01/29 00:12:25;;;;;;;1.13;1.13;;;;;;;3.09;92.18;96771.56;4350180;32;20197;-63
2024/01/29 00:14:50;;;;;;;0.90;0.90;;;;;;;3.01;92.25;96778.84;4362861;32;20239;-63
2024/01/29 00:17:15;;;;;;;0.80;0.80;;;;;;;2.67;93.18;96780.00;4366675;32;20220;-63
2024/01/29 00:19:41;;;;;;;1.23;1.13;;;;;;;2.26;95.91;96785.56;4364056;32;20180;-63
2024/01/29 00:22:06;;;;;;;1.77;1.67;;;;;;;2.18;96.56;96775.31;4356988;32;20197;-63
2024/01/29 00:24:31;;;;;;;1.33;1.30;;;;;;;2.05;96.82;96774.31;4355585;32;20212;-63
2024/01/29 00:26:57;;;;;;;0.60;0.57;;;;;;;1.89;97.89;96777.34;4348755;32;20239;-63
2024/01/29 00:29:22;;;;;;;1.80;0.93;;;;;;;1.98;97.53;96767.47;4359491;32;20243;-63
2024/01/29 00:31:48;;;;;;;1.90;1.23;;;;;;;2.27;95.97;96761.81;4361612;32;20193;-63
2024/01/29 00:34:13;;;;;;;1.37;1.13;;;;;;;2.15;95.97;96760.81;4353362;32;20193;-63
2024/01/29 00:36:38;;;;;;;3.43;1.10;;;;;;;1.97;97.07;96758.81;4348522;32;20271;-64
2024/01/29 00:39:08;;;;;;;0.80;0.80;;;;;;;2.21;95.84;96760.00;4351059;32;20311;-64
2024/01/29 00:41:34;;;;;;;1.50;1.40;;;;;;;2.11;96.02;96762.22;4359466;32;20310;-63
2024/01/29 00:44:00;;;;;;;1.83;1.47;;;;;;;2.14;95.67;96763.63;4371394;32;20337;-63
2024/01/29 00:46:26;;;;;;;1.10;1.00;;;;;;;2.10;95.16;96763.22;4360913;32;20213;-63
2024/01/29 00:48:51;;;;;;;1.00;1.00;;;;;;;1.88;96.59;96761.84;4365215;32;20281;-63
2024/01/29 00:51:17;;;;;;;4.90;1.60;;;;;;;2.23;95.44;96757.19;4361281;32;20320;-63
2024/01/29 00:53:42;;;;;;;0.83;0.83;;;;;;;2.18;94.47;96756.97;4359343;32;20198;-63
2024/01/29 00:56:07;;;;;;;2.67;1.33;;;;;;;1.89;95.83;96761.63;4368815;32;20185;-63
2024/01/29 00:58:33;;;;;;;0.73;0.73;;;;;;;2.13;95.11;96760.19;4363519;32;20193;-63
2024/01/29 01:00:58;;;;;;;1.37;1.27;;;;;;;2.31;93.78;96756.94;4367225;32;20258;-63
2024/01/29 01:03:23;;;;;;;0.97;0.97;;;;;;;2.41;93.29;96759.94;4365255;32;20228;-63
2024/01/29 01:05:48;;;;;;;2.27;1.40;;;;;;;2.33;93.78;96766.19;4350850;32;20264;-63
2024/01/29 01:08:14;;;;;;;1.43;1.43;;;;;;;2.14;95.13;96769.66;4362352;32;20221;-63
2024/01/29 01:10:39;;;;;;;1.47;1.37;;;;;;;2.59;93.11;96775.00;4352499;32;20207;-63
2024/01/29 01:13:04;;;;;;;0.40;0.40;;;;;;;2.73;91.32;96772.13;4358140;32;20269;-63
2024/01/29 01:15:30;;;;;;;2.67;1.83;;;;;;;2.59;92.17;96781.03;4349787;32;20209;-67
2024/01/29 01:17:56;;;;;;;0.77;0.77;;;;;;;2.15;94.13;96779.13;4364960;32;20192;-67
2024/01/29 01:20:23;;;;;;;0.90;0.90;;;;;;;2.04;94.96;96777.94;4356716;32;20196;-66
2024/01/29 01:22:48;;;;;;;0.63;0.63;;;;;;;1.96;95.08;96774.72;4359732;32;20305;-67
2024/01/29 01:25:13;;;;;;;1.37;1.27;;;;;;;2.26;94.80;96775.09;4354515;32;20293;-67
2024/01/29 01:27:38;;;;;;;0.80;0.80;;;;;;;2.41;93.18;96775.66;4352992;32;20285;-67
2024/01/29 01:30:06;;;;;;;2.40;1.40;;;;;;;2.00;94.66;96776.75;4368024;32;20192;-68
2024/01/29 01:32:31;;;;;;;1.10;1.10;;;;;;;2.35;93.40;96771.22;4352895;32;20197;-67
2024/01/29 01:34:56;;;;;;;1.13;1.13;;;;;;;2.55;92.05;96768.56;4350616;32;20289;-67
2024/01/29 01:37:22;;;;;;;0.87;0.87;;;;;;;2.66;91.04;96767.94;4366512;32;20208;-66
2024/01/29 01:39:52;;;;;;;0.60;0.60;;;;;;;2.62;91.46;96766.72;4354690;32;20215;-67
2024/01/29 01:42:17;;;;;;;0.77;0.77;;;;;;;2.44;91.39;96759.53;4348952;32;20239;-67
2024/01/29 01:44:42;;;;;;;0.87;0.87;;;;;;;2.05;92.90;96760.44;4366866;32;20289;-67
2024/01/29 01:47:08;;;;;;;0.40;0.40;;;;;;;2.03;92.76;96758.03;4358883;32;20311;-67
2024/01/29 01:49:33;;;;;;;1.23;1.13;;;;;;;2.10;92.23;96759.81;4362163;32;20294;-67
2024/01/29 01:51:59;;;;;;;0.70;0.70;;;;;;;1.98;92.78;96760.44;4362247;32;20220;-67
2024/01/29 01:54:25;;;;;;;0.53;0.53;;;;;;;2.23;91.83;96755.38;4360736;32;20193;-66
2024/01/29 01:56:51;;;;;;;1.00;1.00;;;;;;;2.19;91.94;96751.53;4351295;32;20243;-67
2024/01/29 01:59:18;;;;;;;2.57;1.07;;;;;;;2.32;91.44;96753.31;4367354;32;20327;-67
2024/01/29 02:01:45;;;;;;;0.53;0.53;;;;;;;2.60;90.48;96750.41;4363927;32;20291;-67
2024/01/29 02:04:11;;;;;;;1.20;1.10;;;;;;;2.69;90.16;96752.59;4348645;32;20285;-68
2024/01/29 02:06:37;;;;;;;2.00;1.47;;;;;;;2.64;89.52;96751.63;4338929;32;20292;-67
2024/01/29 02:09:02;;;;;;;0.67;0.67;;;;;;;2.71;88.98;96747.94;4347632;32;20207;-67
2024/01/29 02:11:28;;;;;;;0.63;0.63;;;;;;;2.51;90.07;96751.66;4363575;32;20205;-68
2024/01/29 02:13:53;;;;;;;0.73;0.73;;;;;;;2.35;91.21;96758.12;4352513;32;20217;-67
2024/01/29 02:16:18;;;;;;;0.60;0.60;;;;;;;2.52;90.69;96759.28;4353751;32;20283;-67
2024/01/29 02:18:44;;;;;;;0.70;0.70;;;;;;;2.70;89.38;96767.28;4362536;32;20234;-67
2024/01/29 02:21:09;;;;;;;1.63;1.53;;;;;;;2.77;89.06;96764.66;4363027;32;20272;-68
2024/01/29 02:23:35;;;;;;;0.83;0.83;;;;;;;2.32;91.45;96763.78;4351092;32;20233;-67
2024/01/29 02:26:00;;;;;;;0.33;0.33;;;;;;;2.51;91.33;96749.81;4353824;32;20196;-67
2024/01/29 02:28:27;;;;;;;1.50;1.43;;;;;;;2.47;91.54;96764.38;4352128;32;20226;-67
2024/01/29 02:30:53;;;;;;;0.60;0.60;;;;;;;2.61;91.05;96754.63;4357658;32;20193;-67
2024/01/29 02:33:19;;;;;;;1.20;1.20;;;;;;;2.62;91.67;96746.56;4346285;32;20316;-67
2024/01/29 02:35:47;;;;;;;1.43;1.33;;;;;;;2.76;91.04;96749.94;4342426;32;20201;-67
2024/01/29 02:38:12;;;;;;;0.70;0.70;;;;;;;2.61;91.80;96747.59;4357748;32;20287;-67
2024/01/29 02:40:38;;;;;;;0.90;0.90;;;;;;;2.32;93.27;96746.25;4355732;32;20314;-67
2024/01/29 02:43:03;;;;;;;0.90;0.90;;;;;;;2.22;93.28;96742.47;4347990;32;20251;-66
2024/01/29 02:45:29;;;;;;;0.77;0.77;;;;;;;2.26;93.13;96744.50;4345692;32;20224;-67
2024/01/29 02:47:54;;;;;;;0.93;0.93;;;;;;;2.34;93.58;96740.81;4344599;32;20247;-65
2024/01/29 02:50:22;;;;;;;0.80;0.80;;;;;;;2.44;92.74;96743.03;4346656;32;20215;-65
2024/01/29 02:52:48;;;;;;;0.23;0.23;;;;;;;2.20;93.60;96749.72;4346466;32;20197;-67
2024/01/29 02:55:13;;;;;;;1.17;1.17;;;;;;;2.10;93.81;96744.91;4350259;32;20357;-67
2024/01/29 02:57:39;;;;;;;1.43;0.70;;;;;;;1.99;94.56;96743.72;4354202;32;20264;-67
2024/01/29 03:00:05;;;;;;;1.00;1.00;;;;;;;1.70;95.40;96744.16;4344877;32;20258;-67
2024/01/29 03:02:30;;;;;;;1.60;1.03;;;;;;;1.52;96.71;96743.94;4354671;32;20255;-66
2024/01/29 03:04:56;;;;;;;0.77;0.77;;;;;;;1.66;96.96;96735.12;4352433;32;20360;-67
2024/01/29 03:07:21;;;;;;;0.90;0.90;;;;;;;1.83;96.02;96741.53;4345917;32;20205;-66
2024/01/29 03:09:46;;;;;;;0.93;0.93;;;;;;;1.93;95.08;96736.69;4360023;32;20212;-67
2024/01/29 03:12:12;;;;;;;0.80;0.80;;;;;;;1.89;94.63;96732.88;4364290;32;20203;-67
2024/01/29 03:14:38;;;;;;;0.83;0.83;;;;;;;1.93;94.17;96731.44;4349396;32;20193;-66
2024/01/29 03:17:03;;;;;;;1.17;1.17;;;;;;;1.74;94.51;96729.66;4350026;32;20189;-66
2024/01/29 03:19:29;;;;;;;1.13;1.13;;;;;;;1.96;93.89;96725.00;4348672;32;20332;-66
2024/01/29 03:21:54;;;;;;;0.67;0.67;;;;;;;2.26;92.78;96734.03;4354606;32;20250;-67
2024/01/29 03:24:19;;;;;;;0.63;0.63;;;;;;;2.40;91.34;96732.16;4351377;32;20211;-65
2024/01/29 03:26:44;;;;;;;1.37;1.27;;;;;;;2.41;90.83;96728.53;4353914;32;20197;-67
2024/01/29 03:29:10;;;;;;;4.13;1.37;;;;;;;2.19;91.92;96730.59;4347480;32;20233;-67
2024/01/29 03:31:35;;;;;;;1.17;1.17;;;;;;;2.00;92.81;96729.63;4350044;32;20212;-66
2024/01/29 03:34:00;;;;;;;0.40;0.40;;;;;;;2.04;92.86;96720.38;4361113;32;20177;-66
2024/01/29 03:36:26;;;;;;;0.60;0.60;;;;;;;1.85;94.01;96728.25;4366004;32;20201;-66
2024/01/29 03:38:51;;;;;;;0.70;0.70;;;;;;;1.91;93.43;96725.63;4355798;32;20200;-66
2024/01/29 03:41:17;;;;;;;0.93;0.93;;;;;;;1.41;94.36;96724.47;4373867;32;20196;-67
2024/01/29 03:43:43;;;;;;;1.23;1.13;;;;;;;1.32;94.41;96730.87;4366868;32;20232;-67
2024/01/29 03:46:08;;;;;;;1.67;1.33;;;;;;;1.51;94.24;96714.38;4348709;32;20194;-66
2024/01/29 03:48:33;;;;;;;1.63;1.00;;;;;;;1.98;92.26;96721.19;4360693;32;20196;-66
2024/01/29 03:50:59;;;;;;;0.80;0.80;;;;;;;1.95;91.67;96726.03;4363865;32;20234;-67
2024/01/29 03:53:24;;;;;;;0.50;0.50;;;;;;;1.97;91.19;96724.81;4355093;32;20259;-67
2024/01/29 03:55:52;;;;;;;1.67;0.47;;;;;;;1.96;90.52;96723.19;4360890;32;20232;-64
2024/01/29 03:58:17;;;;;;;0.37;0.37;;;;;;;1.91;91.32;96716.97;4368416;32;20223;-68
2024/01/29 04:00:43;;;;;;;0.70;0.70;;;;;;;1.84;91.95;96711.75;4359516;32;20381;-68
2024/01/29 04:03:08;;;;;;;0.30;0.30;;;;;;;1.79;91.68;96714.19;4351635;32;20184;-67
2024/01/29 04:05:33;;;;;;;1.27;1.27;;;;;;;1.88;91.05;96720.78;4364422;32;20251;-68
2024/01/29 04:07:59;;;;;;;0.50;0.50;;;;;;;1.99;90.42;96717.56;4358785;32;20244;-67
2024/01/29 04:10:24;;;;;;;0.60;0.60;;;;;;;2.09;90.23;96711.88;4351150;32;20212;-66
2024/01/29 04:12:50;;;;;;;0.80;0.80;;;;;;;1.85;90.44;96721.22;4351553;32;20205;-66
2024/01/29 04:15:15;;;;;;;0.30;0.30;;;;;;;1.57;90.64;96731.09;4365488;32;20240;-69
2024/01/29 04:17:40;;;;;;;0.43;0.43;;;;;;;1.89;90.33;96727.62;4357900;32;20211;-67
2024/01/29 04:20:06;;;;;;;0.83;0.83;;;;;;;1.92;89.02;96727.22;4362504;32;20266;-66
2024/01/29 04:22:32;;;;;;;0.47;0.47;;;;;;;1.94;88.87;96714.75;4357383;32;20212;-67
2024/01/29 04:24:59;;;;;;;1.90;0.63;;;;;;;1.78;89.90;96715.19;4356493;32;20197;-67
2024/01/29 04:27:24;;;;;;;3.67;0.70;;;;;;;1.79;89.36;96721.22;4363424;32;20304;-67
2024/01/29 04:29:49;;;;;;;0.23;0.23;;;;;;;2.06;87.61;96715.75;4359975;32;20313;-65
2024/01/29 04:32:14;;;;;;;0.87;0.87;;;;;;;1.84;88.14;96714.38;4362737;32;20196;-68
2024/01/29 04:34:40;;;;;;;0.60;0.60;;;;;;;1.92;88.38;96715.97;4368758;32;20185;-67
2024/01/29 04:37:05;;;;;;;0.73;0.73;;;;;;;2.11;87.77;96720.34;4359859;32;20228;-68
2024/01/29 04:39:31;;;;;;;0.60;0.60;;;;;;;1.99;87.63;96720.19;4357417;32;20229;-68
2024/01/29 04:41:56;;;;;;;0.93;0.90;;;;;;;2.01;88.60;96715.56;4368432;32;20197;-68
2024/01/29 04:44:22;;;;;;;0.40;0.40;;;;;;;2.30;87.08;96713.44;4363940;32;20189;-66
2024/01/29 04:46:48;;;;;;;0.73;0.73;;;;;;;2.01;87.65;96710.31;4366719;32;20234;-67
2024/01/29 04:49:13;;;;;;;0.20;0.20;;;;;;;2.19;87.49;96714.09;4359030;32;20196;-66
2024/01/29 04:51:39;;;;;;;0.60;0.60;;;;;;;2.15;87.36;96716.31;4365463;32;20444;-66
2024/01/29 04:54:04;;;;;;;0.50;0.50;;;;;;;2.15;87.23;96710.28;4369907;32;20229;-66
2024/01/29 04:56:30;;;;;;;0.87;0.87;;;;;;;2.26;87.17;96720.12;4362889;32;20215;-66
2024/01/29 04:58:55;;;;;;;0.40;0.40;;;;;;;2.32;86.35;96714.84;4362357;32;20192;-66
2024/01/29 05:01:21;;;;;;;0.53;0.53;;;;;;;2.40;86.52;96719.06;4354553;32;20212;-66
2024/01/29 05:03:47;;;;;;;0.90;0.90;;;;;;;2.35;86.67;96721.50;4354178;32;20207;-66
2024/01/29 05:06:13;;;;;;;0.37;0.37;;;;;;;2.18;87.55;96721.16;4357756;32;20192;-66
2024/01/29 05:08:38;;;;;;;0.40;0.40;;;;;;;2.22;87.21;96724.16;4349451;32;20339;-66
2024/01/29 05:11:04;;;;;;;0.30;0.30;;;;;;;2.30;87.00;96716.06;4359714;32;20192;-66
2024/01/29 05:13:29;;;;;;;0.73;0.50;;;;;;;2.42;86.72;96723.09;4365517;32;20247;-66
2024/01/29 05:15:54;;;;;;;0.40;0.40;;;;;;;2.23;87.14;96720.53;4365417;32;20292;-66
2024/01/29 05:18:20;;;;;;;0.50;0.50;;;;;;;2.43;86.40;96723.87;4363208;32;20205;-65
2024/01/29 05:20:46;;;;;;;1.33;0.93;;;;;;;2.35;87.01;96726.72;4370953;32;20189;-67
2024/01/29 05:23:12;;;;;;;0.23;0.23;;;;;;;2.24;87.40;96735.22;4361146;32;20326;-67
2024/01/29 05:25:37;;;;;;;0.67;0.67;;;;;;;1.98;89.01;96729.03;4365308;32;20201;-66
2024/01/29 05:28:03;;;;;;;0.30;0.30;;;;;;;2.23;87.42;96734.41;4365227;32;20309;-67
2024/01/29 05:30:28;;;;;;;1.27;1.17;;;;;;;2.18;87.29;96729.00;4369441;32;20196;-66
2024/01/29 05:32:54;;;;;;;0.43;0.43;;;;;;;2.17;88.11;96730.00;4360332;32;20254;-66
2024/01/29 05:35:19;;;;;;;0.43;0.43;;;;;;;2.16;87.97;96735.44;4352230;32;20241;-62
2024/01/29 05:37:44;;;;;;;0.60;0.60;;;;;;;2.35;87.35;96737.19;4349602;32;20196;-66
2024/01/29 05:40:11;;;;;;;0.57;0.57;;;;;;;2.56;87.17;96739.53;4362514;32;20211;-67
2024/01/29 05:42:37;;;;;;;1.37;1.27;;;;;;;2.37;87.70;96735.19;4353522;32;20200;-66
2024/01/29 05:45:03;;;;;;;0.60;0.60;;;;;;;2.38;88.14;96739.41;4352486;32;20339;-67
2024/01/29 05:47:28;;;;;;;1.23;1.13;;;;;;;2.54;88.22;96743.38;4365458;32;20231;-67
2024/01/29 05:49:53;;;;;;;0.80;0.80;;;;;;;2.36;89.46;96739.63;4362531;32;20304;-67
2024/01/29 05:52:19;;;;;;;0.83;0.83;;;;;;;2.29;90.39;96743.25;4375130;32;20189;-67
2024/01/29 05:54:44;;;;;;;1.20;1.13;;;;;;;2.32;90.47;96748.06;4363305;32;20270;-67
2024/01/29 05:57:10;;;;;;;0.77;0.60;;;;;;;2.43;90.22;96742.22;4369505;32;20283;-67
2024/01/29 05:59:38;;;;;;;0.83;0.83;;;;;;;2.37;90.87;96746.47;4353759;32;20276;-67
2024/01/29 06:02:03;;;;;;;2.03;1.07;;;;;;;2.24;91.07;96745.69;4354094;32;20220;-66
2024/01/29 06:04:28;;;;;;;0.53;0.53;;;;;;;2.30;91.21;96744.84;4361270;32;20466;-67
2024/01/29 06:06:54;;;;;;;1.37;0.83;;;;;;;2.21;91.42;96751.34;4358160;32;20193;-66
2024/01/29 06:09:19;;;;;;;0.87;0.87;;;;;;;2.41;90.87;96752.09;4365885;32;20197;-62
2024/01/29 06:11:45;;;;;;;0.80;0.80;;;;;;;2.39;90.75;96748.88;4358686;32;20193;-66
2024/01/29 06:14:10;;;;;;;0.33;0.33;;;;;;;2.37;91.04;96753.50;4359362;32;20248;-66
2024/01/29 06:16:35;;;;;;;0.70;0.70;;;;;;;2.44;90.40;96750.88;4366140;32;20324;-67
2024/01/29 06:19:01;;;;;;;0.97;0.97;;;;;;;1.85;91.24;96762.28;4362307;32;20211;-66
2024/01/29 06:21:26;;;;;;;0.57;0.57;;;;;;;1.37;92.41;96770.28;4354272;32;20210;-66
2024/01/29 06:23:51;;;;;;;0.47;0.47;;;;;;;1.59;92.13;96765.69;4351596;32;20203;-67
2024/01/29 06:26:17;;;;;;;0.70;0.70;;;;;;;1.73;90.92;96756.81;4362986;32;20229;-67
2024/01/29 06:28:42;;;;;;;0.50;0.50;;;;;;;1.83;89.85;96762.47;4352492;32;20188;-66
2024/01/29 06:31:08;;;;;;;0.90;0.90;;;;;;;1.92;89.56;96758.62;4362176;32;20193;-67
2024/01/29 06:33:38;;;;;;;0.63;0.63;;;;;;;1.93;89.08;96765.47;4346651;32;20208;-66
2024/01/29 06:36:04;;;;;;;3.70;1.10;;;;;;;2.06;88.52;96770.69;4350143;32;20197;-66
2024/01/29 06:38:30;;;;;;;0.63;0.40;;;;;;;1.73;89.66;96764.66;4350967;32;20360;-66
2024/01/29 06:40:55;;;;;;;0.50;0.50;;;;;;;1.40;91.21;96763.88;4351340;32;20325;-65
2024/01/29 06:43:20;;;;;;;1.37;0.77;;;;;;;1.20;92.67;96759.41;4344362;32;20189;-65
2024/01/29 06:45:45;;;;;;;3.80;1.30;;;;;;;1.43;92.04;96769.50;4345282;32;20193;-66
2024/01/29 06:48:11;;;;;;;2.10;1.47;;;;;;;1.79;90.21;96763.88;4347298;32;20193;-66
2024/01/29 06:50:38;;;;;;;18.90;0.97;;;;;;;2.05;88.03;96763.84;4348068;32;20186;-66
2024/01/29 06:53:04;;;;;;;0.53;0.53;;;;;;;2.16;87.12;96764.22;4340185;32;20220;-66
2024/01/29 06:55:29;;;;;;;1.07;1.07;;;;;;;2.17;86.81;96766.66;4348148;32;20281;-66
2024/01/29 06:57:54;;;;;;;0.63;0.63;;;;;;;2.04;87.60;96777.16;4347929;32;20287;-66
2024/01/29 07:00:20;;;;;;;2.40;1.00;;;;;;;1.98;88.00;96772.72;4352475;32;20192;-62
2024/01/29 07:02:45;;;;;;;1.07;1.07;;;;;;;2.18;87.59;96777.91;4358504;32;20237;-67
2024/01/29 07:05:10;;;;;;;5.50;1.27;;;;;;;2.26;87.46;96780.34;4342773;32;20224;-66
2024/01/29 07:07:36;;;;;;;1.03;1.03;;;;;;;2.43;86.29;96784.13;4343467;32;20256;-66
2024/01/29 07:10:01;;;;;;;0.67;0.67;;;;;;;2.39;87.40;96785.53;4345657;32;20265;-66
2024/01/29 07:12:26;;;;;;;0.70;0.70;;;;;;;2.47;86.78;96776.66;4355292;32;20205;-66
2024/01/29 07:14:53;;;;;;;1.37;0.67;;;;;;;2.46;86.12;96775.84;4364044;32;20212;-66
2024/01/29 07:17:19;;;;;;;0.80;0.60;;;;;;;2.44;86.24;96777.87;4352770;32;20225;-66
2024/01/29 07:19:47;;;;;;;2.20;0.93;;;;;;;2.28;87.27;96778.31;4344729;32;20395;-67
2024/01/29 07:22:18;;;;;;;0.87;0.87;;;;;;;2.40;86.58;96785.31;4343054;32;20249;-66
2024/01/29 07:24:44;;;;;;;1.23;1.23;;;;;;;2.42;86.68;96785.13;4349501;32;20285;-66
2024/01/29 07:27:09;;;;;;;0.80;0.80;;;;;;;2.52;86.32;96789.91;4347292;32;20316;-66
2024/01/29 07:29:35;;;;;;;0.70;0.70;;;;;;;2.18;86.94;96786.56;4342123;32;20328;-66
2024/01/29 07:32:00;;;;;;;1.37;1.27;;;;;;;2.17;87.42;96798.06;4361619;32;20208;-66
2024/01/29 07:34:26;;;;;;;0.83;0.83;;;;;;;1.88;88.38;96799.28;4354737;32;20322;-66
2024/01/29 07:36:51;;;;;;;0.67;0.67;;;;;;;2.16;87.22;96804.28;4356429;32;20215;-66
2024/01/29 07:39:17;;;;;;;1.27;1.13;;;;;;;2.43;86.23;96810.31;4360390;32;20276;-66
2024/01/29 07:41:42;;;;;;;3.10;1.53;;;;;;;2.45;85.58;96810.91;4363286;32;20202;-54
2024/01/29 07:44:08;;;;;;;7.80;1.80;;;;;;;7.25;100.00;96792.41;4365386;32;20208;-57
2024/01/29 07:46:35;;;;;;;1.70;1.33;;;;;;;8.87;100.00;96794.19;4352741;32;20201;-57
2024/01/29 07:49:03;;;;;;;0.70;0.70;;;;;;;9.93;97.69;96797.16;4366903;32;20208;-58
2024/01/29 07:51:28;;;;;;;2.97;1.17;;;;;;;11.39;80.78;96793.78;4348758;32;20308;-57
2024/01/29 07:53:54;;;;;;;1.47;1.00;;;;;;;11.20;59.36;96796.12;4354395;32;20315;-58
2024/01/29 07:56:19;;;;;;;0.60;0.60;;;;;;;11.36;56.15;96796.94;4366032;32;20201;-58
2024/01/29 07:58:44;;;;;;;0.70;0.70;;;;;;;11.37;53.48;96798.56;4352103;32;20256;-56
2024/01/29 08:01:10;;;;;;;1.07;0.90;;;;;;;11.62;52.31;96803.94;4360907;32;20288;-58
2024/01/29 08:03:35;;;;;;;4.70;1.13;;;;;;;11.64;50.59;96807.09;4349271;32;20291;-57
2024/01/29 08:06:01;;;;;;;1.17;1.07;;;;;;;11.69;50.17;96801.00;4357787;32;20205;-61
2024/01/29 08:08:28;;;;;;;1.13;1.10;;;;;;;11.71;49.43;96807.66;4362801;32;20249;-58
2024/01/29 08:10:57;;;;;;;0.97;0.97;;;;;;;11.66;49.59;96798.88;4364961;32;20189;-58
2024/01/29 08:13:22;;;;;;;1.10;1.00;;;;;;;11.62;49.08;96801.28;4364127;32;20192;-58
2024/01/29 08:15:47;;;;;;;1.07;1.07;;;;;;;11.49;48.87;96800.97;4366405;32;20207;-57
2024/01/29 08:18:12;;;;;;;2.13;1.07;;;;;;;11.30;49.00;96795.31;4369373;32;20189;-58
2024/01/29 08:20:38;;;;;;;1.23;1.13;;;;;;;11.39;48.50;96801.75;4368574;32;20189;-58
2024/01/29 08:23:03;;;;;;;1.13;0.67;;;;;;;11.40;48.26;96797.22;4357013;32;20218;-58
2024/01/29 08:25:29;;;;;;;1.63;1.50;;;;;;;11.34;48.13;96794.56;4367600;32;20196;-59
2024/01/29 08:27:54;;;;;;;0.97;0.53;;;;;;;11.19;47.86;96793.72;4352050;32;20222;-57
2024/01/29 08:30:20;;;;;;;1.53;0.77;;;;;;;11.15;47.85;96803.25;4367164;32;20201;-66
2024/01/29 08:32:45;;;;;;;0.60;0.60;;;;;;;10.28;44.66;96800.13;4361033;32;20239;-66
2024/01/29 08:35:11;;;;;;;0.30;0.30;;;;;;;8.62;47.63;96807.87;4360918;32;20272;-66
2024/01/29 08:37:36;;;;;;;1.00;1.00;;;;;;;7.65;49.75;96805.53;4355946;32;20204;-66
2024/01/29 08:40:02;;;;;;;0.90;0.90;;;;;;;6.90;51.90;96811.75;4356277;32;20212;-67
2024/01/29 08:42:28;;;;;;;2.47;1.10;;;;;;;6.04;54.94;96820.38;4352428;32;20206;-66
2024/01/29 08:44:56;;;;;;;0.93;0.93;;;;;;;5.64;57.53;96814.87;4350388;32;20298;-66
2024/01/29 08:47:22;;;;;;;4.00;1.70;;;;;;;5.38;59.57;96816.06;4350632;32;20247;-65
2024/01/29 08:49:47;;;;;;;0.50;0.50;;;;;;;5.29;60.41;96824.50;4359310;32;20307;-66
2024/01/29 08:52:13;;;;;;;1.27;0.83;;;;;;;5.25;61.65;96818.88;4355383;32;20282;-67
2024/01/29 08:54:38;;;;;;;0.90;0.90;;;;;;;5.12;62.30;96824.31;4350043;32;20251;-66
2024/01/29 08:57:04;;;;;;;1.40;1.27;;;;;;;4.84;63.67;96823.00;4364839;32;20291;-67
2024/01/29 08:59:31;;;;;;;1.30;1.20;;;;;;;4.88;63.81;96822.56;4351524;32;20193;-67
2024/01/29 09:01:58;;;;;;;0.90;0.90;;;;;;;5.04;63.66;96816.69;4366046;32;20213;-67
2024/01/29 09:04:24;;;;;;;1.33;1.30;;;;;;;5.08;63.60;96820.50;4354607;32;20330;-66
2024/01/29 09:06:49;;;;;;;3.43;0.77;;;;;;;5.25;63.47;96826.75;4354499;32;20284;-66
2024/01/29 09:09:14;;;;;;;0.83;0.83;;;;;;;5.25;63.66;96829.38;4354869;32;20215;-66
2024/01/29 09:11:40;;;;;;;1.60;1.23;;;;;;;5.12;63.56;96829.56;4358205;32;20193;-67
2024/01/29 09:14:05;;;;;;;1.37;0.60;;;;;;;5.24;62.69;96833.03;4334385;32;20236;-66
2024/01/29 09:16:32;;;;;;;0.90;0.90;;;;;;;5.48;61.84;96831.31;4363914;32;20205;-63
2024/01/29 09:18:58;;;;;;;0.93;0.93;;;;;;;5.61;61.37;96830.34;4359325;32;20192;-66
2024/01/29 09:21:24;;;;;;;5.53;0.90;;;;;;;5.71;61.89;96827.97;4373156;32;20292;-66
2024/01/29 09:23:50;;;;;;;1.10;1.10;;;;;;;5.78;61.60;96829.47;4365523;32;20322;-66
2024/01/29 09:26:15;;;;;;;2.40;1.23;;;;;;;5.84;61.87;96828.56;4346382;32;20201;-66
2024/01/29 09:28:43;;;;;;;1.13;1.13;;;;;;;5.77;60.48;96822.59;4358725;32;20221;-67
2024/01/29 09:31:09;;;;;;;0.70;0.70;;;;;;;5.81;61.20;96830.84;4368901;32;20212;-66
2024/01/29 09:33:35;;;;;;;0.87;0.87;;;;;;;6.03;60.92;96824.03;4363291;32;20284;-66
2024/01/29 09:36:02;;;;;;;1.10;1.00;;;;;;;6.18;61.10;96826.25;4348998;32;20288;-64
2024/01/29 09:38:27;;;;;;;0.70;0.70;;;;;;;6.30;57.50;96827.06;4354096;32;20200;-66
2024/01/29 09:40:54;;;;;;;1.30;0.90;;;;;;;6.29;60.43;96833.34;4347825;32;20284;-66
2024/01/29 09:43:21;;;;;;;1.20;0.70;;;;;;;6.32;57.55;96819.72;4367686;32;20216;-66
2024/01/29 09:45:50;;;;;;;0.57;0.57;;;;;;;6.35;60.92;96818.47;4348504;32;20340;-67
2024/01/29 09:48:16;;;;;;;0.93;0.80;;;;;;;6.51;57.82;96830.94;4361689;32;20321;-66
2024/01/29 09:50:43;;;;;;;0.77;0.77;;;;;;;6.58;58.69;96829.00;4362600;32;20306;-66
2024/01/29 09:53:11;;;;;;;0.70;0.70;;;;;;;6.45;60.96;96824.75;4354462;32;20196;-67
2024/01/29 09:55:36;;;;;;;1.03;1.03;;;;;;;6.66;57.17;96825.19;4353885;32;20308;-65
2024/01/29 09:58:03;;;;;;;0.80;0.80;;;;;;;6.76;57.37;96826.25;4361458;32;20340;-65
2024/01/29 10:00:28;;;;;;;1.20;1.10;;;;;;;6.82;56.16;96822.69;4364890;32;20197;-66
2024/01/29 10:02:54;;;;;;;0.70;0.70;;;;;;;6.88;57.38;96819.09;4362088;32;20303;-66
2024/01/29 10:05:19;;;;;;;1.27;1.17;;;;;;;6.88;56.67;96816.47;4362547;32;20223;-66
2024/01/29 10:07:45;;;;;;;0.63;0.63;;;;;;;7.10;55.72;96810.56;4357767;32;20239;-66
2024/01/29 10:10:10;;;;;;;1.07;1.00;;;;;;;7.23;52.59;96815.59;4367365;32;20235;-67
2024/01/29 10:12:36;;;;;;;0.63;0.63;;;;;;;7.36;51.02;96812.66;4344832;32;20317;-66
2024/01/29 10:15:02;;;;;;;1.07;0.73;;;;;;;7.39;51.78;96820.09;4359722;32;20213;-66
2024/01/29 10:17:28;;;;;;;0.40;0.40;;;;;;;7.46;50.89;96815.50;4347733;32;20232;-66
2024/01/29 10:19:53;;;;;;;1.10;0.70;;;;;;;7.48;53.01;96813.41;4351766;32;20293;-66
2024/01/29 10:22:24;;;;;;;1.10;0.53;;;;;;;7.49;53.80;96816.84;4362680;32;20232;-66
2024/01/29 10:25:03;;;;;;;1.60;0.70;;;;;;;7.48;53.41;96817.91;4360116;32;20205;-67
2024/01/29 10:27:29;;;;;;;0.50;0.50;;;;;;;7.67;50.87;96811.38;4354984;32;20362;-67
2024/01/29 10:29:54;;;;;;;0.67;0.67;;;;;;;7.91;51.33;96812.84;4364269;32;20288;-65
2024/01/29 10:32:20;;;;;;;3.07;0.73;;;;;;;7.98;50.16;96812.69;4370486;32;20257;-65
2024/01/29 10:34:46;;;;;;;1.20;1.10;;;;;;;8.11;47.09;96811.56;4369799;32;20307;-66
2024/01/29 10:37:14;;;;;;;0.90;0.90;;;;;;;8.23;47.28;96805.16;4357274;32;20303;-66
2024/01/29 10:39:41;;;;;;;0.87;0.70;;;;;;;8.34;46.84;96808.78;4340955;32;20244;-67
2024/01/29 10:42:14;;;;;;;1.17;1.17;;;;;;;8.52;46.53;96805.88;4350574;32;20285;-66
2024/01/29 10:44:42;;;;;;;0.57;0.57;;;;;;;8.46;47.00;96808.69;4340937;32;20313;-66
2024/01/29 10:47:25;;;;;;;0.57;0.57;;;;;;;8.49;46.66;96805.56;4369092;32;20289;-66
2024/01/29 10:49:55;;;;;;;17.77;1.20;;;;;;;8.62;46.69;96802.56;4373950;32;20276;-65
2024/01/29 10:52:21;;;;;;;3.70;1.67;;;;;;;8.79;45.38;96805.97;4355981;32;20307;-66
2024/01/29 10:54:47;;;;;;;1.03;1.03;;;;;;;8.85;45.03;96802.34;4366647;32;20331;-66
2024/01/29 10:57:15;;;;;;;1.60;1.50;;;;;;;8.88;46.41;96796.59;4354597;32;20290;-66
2024/01/29 10:59:43;;;;;;;6.23;2.17;;;;;;;9.07;45.09;96801.56;4362342;32;20200;-67
2024/01/29 11:02:14;;;;;;;1.00;0.90;;;;;;;9.13;44.38;96798.75;4360931;32;20207;-66
2024/01/29 11:04:41;;;;;;;13.10;0.97;;;;;;;9.23;44.19;96803.34;4348197;32;20225;-66
2024/01/29 11:07:20;;;;;;;0.80;0.80;;;;;;;9.34;43.90;96798.97;4358716;32;20262;-66
2024/01/29 11:10:11;;;;;;;1.33;1.23;;;;;;;9.49;43.76;96797.28;4313518;32;20225;-67
2024/01/29 11:12:39;;;;;;;2.77;1.10;;;;;;;9.49;42.84;96793.81;4345470;32;20251;-64
2024/01/29 11:15:06;;;;;;;1.47;1.40;;;;;;;9.61;43.17;96795.25;4354582;32;20245;-65
2024/01/29 11:17:31;;;;;;;1.40;1.00;;;;;;;9.68;42.75;96796.91;4345436;32;20188;-65
2024/01/29 11:20:02;;;;;;;0.97;0.93;;;;;;;9.63;41.98;96793.16;4356185;32;20189;-65
2024/01/29 11:22:39;;;;;;;2.40;0.77;;;;;;;9.72;42.70;96787.44;4359645;32;20196;-65
2024/01/29 11:25:24;;;;;;;0.60;0.60;;;;;;;9.84;42.06;96788.84;4356815;32;20212;-65
2024/01/29 11:27:50;;;;;;;0.57;0.50;;;;;;;9.95;41.30;96774.66;4373026;32;20219;-65
2024/01/29 11:30:24;;;;;;;0.90;0.80;;;;;;;9.92;42.63;96780.44;4355199;32;20196;-65
2024/01/29 11:32:51;;;;;;;4.47;0.57;;;;;;;9.81;42.28;96775.31;4344562;32;20207;-65
2024/01/29 11:35:19;;;;;;;0.27;0.27;;;;;;;9.95;41.01;96773.84;4345144;32;20255;-65